Time;durP1;ratioP1;P1;durP2;ratioP2;P2;SDS_P1;SDS_P2;PMS_P1;PMS_P2;Temp;Humidity;BMP_temperature;BMP_pressure;BME280_temperature;BME280_humidity;BME280_pressure;Samples;Min_cycle;Max_cycle;Signal;HPM_P1;HPM_P2
2021/08/24 02:08:03;;;;;;;4.63;1.40;;;18.40;70.90;;;;;;4990461;23;20384;-73
2021/08/24 02:10:28;;;;;;;2.80;1.20;;;18.40;69.90;;;;;;4991573;28;20042;-70
2021/08/24 02:12:57;;;;;;;3.63;1.17;;;18.40;70.00;;;;;;4993453;28;20493;-73
2021/08/24 02:15:36;;;;;;;5.57;1.33;;;18.30;71.50;;;;;;4993997;28;20096;-72
2021/08/24 02:18:04;;;;;;;5.13;1.13;;;18.30;70.90;;;;;;4997141;28;20478;-72
2021/08/24 02:20:35;;;;;;;3.63;1.30;;;18.30;71.40;;;;;;4996902;28;20042;-73
2021/08/24 02:23:05;;;;;;;1.38;1.00;;;18.30;70.90;;;;;;4996579;28;20135;-73
2021/08/24 02:25:35;;;;;;;5.35;1.40;;;18.20;72.00;;;;;;4996884;28;20173;-72
2021/08/24 02:28:07;;;;;;;2.60;1.42;;;18.20;70.90;;;;;;4997225;28;20398;-72
2021/08/24 02:30:34;;;;;;;;;;;18.20;70.60;;;;;;4997350;28;20080;-73
2021/08/24 02:33:01;;;;;;;4.47;1.20;;;18.20;70.20;;;;;;4996659;28;19906;-72
2021/08/24 02:35:37;;;;;;;3.78;1.10;;;18.20;70.40;;;;;;4996699;28;20037;-72
2021/08/24 02:38:08;;;;;;;2.80;1.20;;;18.20;70.80;;;;;;4996544;28;20042;-72
2021/08/24 02:40:39;;;;;;;2.25;1.20;;;18.20;70.50;;;;;;4996637;28;20117;-72
2021/08/24 02:43:04;;;;;;;3.38;1.15;;;18.20;70.00;;;;;;4996483;28;20471;-73
2021/08/24 02:45:34;;;;;;;4.32;1.50;;;18.10;69.70;;;;;;4996625;28;20049;-73
2021/08/24 02:48:03;;;;;;;2.65;1.27;;;18.20;70.10;;;;;;4996402;28;20040;-72
2021/08/24 02:50:29;;;;;;;4.57;1.60;;;18.20;70.30;;;;;;4996329;28;20085;-73
2021/08/24 02:52:55;;;;;;;2.05;1.30;;;18.20;70.30;;;;;;4996417;28;20442;-73
2021/08/24 02:55:21;;;;;;;2.22;1.20;;;18.30;70.10;;;;;;4996207;28;20038;-72
2021/08/24 02:57:47;;;;;;;5.15;1.40;;;18.30;69.90;;;;;;4996424;28;20038;-73
2021/08/24 03:00:15;;;;;;;4.28;1.17;;;18.30;69.70;;;;;;4995969;28;20509;-72
2021/08/24 03:02:40;;;;;;;4.15;1.40;;;18.40;69.50;;;;;;4995986;28;20541;-73
2021/08/24 03:05:07;;;;;;;2.75;1.27;;;18.40;69.70;;;;;;4996388;28;20186;-73
2021/08/24 03:07:35;;;;;;;5.32;1.50;;;18.40;68.90;;;;;;4996200;28;20422;-73
2021/08/24 03:10:06;;;;;;;5.30;1.30;;;18.40;69.10;;;;;;4995921;28;20092;-74
2021/08/24 03:13:08;;;;;;;1.60;1.15;;;18.40;68.00;;;;;;4996058;28;20126;-73
2021/08/24 03:16:05;;;;;;;3.78;1.30;;;18.50;68.60;;;;;;4995918;28;20038;-73
2021/08/24 03:18:36;;;;;;;2.20;1.27;;;18.50;67.70;;;;;;4995803;28;20105;-74
2021/08/24 03:21:07;;;;;;;2.55;1.10;;;18.50;67.50;;;;;;4995823;28;20042;-72
2021/08/24 03:23:36;;;;;;;2.78;1.42;;;18.60;67.60;;;;;;4995565;28;20110;-73
2021/08/24 03:26:01;;;;;;;2.15;1.38;;;18.60;67.20;;;;;;4995772;28;20113;-73
2021/08/24 03:28:27;;;;;;;2.08;1.35;;;18.70;66.70;;;;;;4995266;28;20117;-74
2021/08/24 03:30:53;;;;;;;1.90;1.40;;;18.70;68.90;;;;;;4995851;28;20085;-73
2021/08/24 03:33:19;;;;;;;1.95;1.35;;;18.70;66.70;;;;;;4995678;28;20081;-74
2021/08/24 03:35:45;;;;;;;1.63;1.30;;;18.70;67.70;;;;;;4995437;28;20035;-72
2021/08/24 03:38:11;;;;;;;3.53;1.25;;;18.70;67.40;;;;;;4995593;28;20031;-73
2021/08/24 03:40:37;;;;;;;3.90;1.42;;;18.70;67.90;;;;;;4995465;28;20034;-71
2021/08/24 03:43:04;;;;;;;4.20;1.50;;;18.80;67.00;;;;;;4995448;28;20043;-72
2021/08/24 03:45:30;;;;;;;3.67;1.08;;;18.70;66.40;;;;;;4995423;28;20134;-73
2021/08/24 03:47:55;;;;;;;4.00;1.80;;;18.70;66.50;;;;;;4995264;28;20572;-73
2021/08/24 03:50:22;;;;;;;3.55;1.35;;;18.70;66.90;;;;;;4995361;28;20062;-73
2021/08/24 03:52:48;;;;;;;3.92;1.13;;;18.70;66.70;;;;;;4995306;28;20026;-72
2021/08/24 03:55:13;;;;;;;2.10;1.20;;;18.60;67.00;;;;;;4995290;28;20047;-72
2021/08/24 03:57:39;;;;;;;5.40;1.50;;;18.70;66.80;;;;;;4995337;28;20089;-72
2021/08/24 04:00:06;;;;;;;3.60;1.63;;;18.70;67.50;;;;;;4995100;28;20042;-72
2021/08/24 04:02:32;;;;;;;3.00;1.40;;;18.60;69.60;;;;;;4994927;28;20031;-73
2021/08/24 04:05:02;;;;;;;3.08;1.40;;;18.60;68.30;;;;;;4994802;28;20390;-73
2021/08/24 04:07:28;;;;;;;2.80;1.27;;;18.50;69.20;;;;;;4994937;28;20434;-73
2021/08/24 04:09:54;;;;;;;3.80;1.30;;;18.40;68.20;;;;;;4994855;28;20050;-73
2021/08/24 04:12:20;;;;;;;5.88;1.48;;;18.30;69.30;;;;;;4995033;28;20101;-72
2021/08/24 04:14:45;;;;;;;4.82;1.40;;;18.30;69.20;;;;;;4994910;28;20482;-71
2021/08/24 04:17:11;;;;;;;6.18;1.38;;;18.30;68.80;;;;;;4994622;28;20093;-74
2021/08/24 04:19:37;;;;;;;2.03;1.23;;;18.20;69.40;;;;;;4994863;28;20466;-73
2021/08/24 04:22:09;;;;;;;2.88;1.25;;;18.10;71.00;;;;;;4993519;28;20434;-72
2021/08/24 04:24:35;;;;;;;1.70;1.20;;;18.10;70.00;;;;;;4994515;28;20050;-72
2021/08/24 04:27:02;;;;;;;4.55;1.25;;;17.90;70.10;;;;;;4994496;28;20062;-72
2021/08/24 04:29:28;;;;;;;2.42;1.48;;;17.90;71.60;;;;;;4994240;28;20494;-73
2021/08/24 04:31:55;;;;;;;3.30;1.40;;;17.80;71.10;;;;;;4994432;28;20061;-72
2021/08/24 04:34:21;;;;;;;2.85;1.40;;;17.90;71.40;;;;;;4994913;28;20049;-72
2021/08/24 04:36:46;;;;;;;3.05;0.88;;;17.80;71.60;;;;;;4994563;28;20049;-73
2021/08/24 04:39:12;;;;;;;5.35;1.48;;;17.80;72.80;;;;;;4993712;28;20038;-72
2021/08/24 04:41:38;;;;;;;2.40;1.40;;;17.80;72.50;;;;;;4994321;28;20052;-72
2021/08/24 04:44:04;;;;;;;3.20;1.30;;;17.80;71.50;;;;;;4994269;28;20046;-73
2021/08/24 04:46:29;;;;;;;2.67;1.40;;;17.80;71.70;;;;;;4994144;28;20037;-72
2021/08/24 04:48:55;;;;;;;6.18;1.60;;;17.80;72.40;;;;;;4994077;28;20039;-72
2021/08/24 04:51:21;;;;;;;3.00;1.20;;;17.80;72.30;;;;;;4994040;28;20442;-72
2021/08/24 04:53:47;;;;;;;1.60;1.00;;;17.80;72.50;;;;;;4994274;28;20393;-73
2021/08/24 04:56:12;;;;;;;3.63;1.33;;;17.80;71.80;;;;;;4992892;28;20074;-72
2021/08/24 04:58:38;;;;;;;1.75;1.15;;;17.90;72.10;;;;;;4994062;28;20418;-73
2021/08/24 05:01:03;;;;;;;3.78;1.40;;;17.90;71.90;;;;;;4993792;28;20490;-70
2021/08/24 05:03:30;;;;;;;7.43;1.52;;;17.90;72.30;;;;;;4993653;28;20073;-73
2021/08/24 05:05:56;;;;;;;3.28;1.58;;;18.00;71.80;;;;;;4993970;28;20030;-72
2021/08/24 05:08:22;;;;;;;4.32;1.40;;;18.10;70.90;;;;;;4993878;28;20399;-72
2021/08/24 05:10:47;;;;;;;2.38;1.50;;;18.10;71.00;;;;;;4994026;28;20046;-73
2021/08/24 05:13:13;;;;;;;5.00;1.50;;;18.20;71.70;;;;;;4993894;28;20097;-72
2021/08/24 05:15:39;;;;;;;3.53;1.58;;;;;;;;;;4993811;28;20096;-72
2021/08/24 05:18:06;;;;;;;2.53;1.40;;;18.30;70.20;;;;;;4994083;28;20034;-73
2021/08/24 05:20:32;;;;;;;1.67;1.23;;;18.30;71.20;;;;;;4993774;28;20038;-74
2021/08/24 05:22:58;;;;;;;5.13;1.25;;;18.40;70.80;;;;;;4993459;28;20053;-72
2021/08/24 05:25:25;;;;;;;3.22;1.30;;;18.50;70.00;;;;;;4993779;28;20041;-72
2021/08/24 05:27:51;;;;;;;6.80;1.55;;;18.50;69.10;;;;;;4993786;28;20034;-73
2021/08/24 05:30:21;;;;;;;3.60;1.38;;;18.60;69.20;;;;;;4993658;28;20045;-71
2021/08/24 05:32:50;;;;;;;1.55;1.27;;;18.70;69.30;;;;;;4993953;28;20121;-72
2021/08/24 05:35:17;;;;;;;2.85;1.25;;;18.70;68.50;;;;;;4993556;28;20030;-71
2021/08/24 05:37:43;;;;;;;2.10;1.23;;;18.70;68.80;;;;;;4993904;28;20089;-72
2021/08/24 05:40:09;;;;;;;2.30;1.30;;;18.80;69.30;;;;;;4993960;28;20042;-72
2021/08/24 05:42:35;;;;;;;2.60;1.30;;;18.80;69.60;;;;;;4993699;28;20057;-69
2021/08/24 05:45:02;;;;;;;4.97;1.35;;;;;;;;;;4993834;28;20038;-70
2021/08/24 05:47:28;;;;;;;1.73;1.35;;;18.90;67.50;;;;;;4993490;28;20038;-72
2021/08/24 05:49:54;;;;;;;2.35;1.33;;;19.00;68.20;;;;;;4994182;28;20031;-71
2021/08/24 05:52:20;;;;;;;1.63;1.23;;;19.00;67.00;;;;;;4997516;28;20568;-70
2021/08/24 05:54:47;;;;;;;2.13;1.33;;;19.00;68.20;;;;;;4996209;28;20122;-71
2021/08/24 05:57:16;;;;;;;2.28;1.58;;;19.10;68.80;;;;;;4997277;28;20121;-71
2021/08/24 05:59:42;;;;;;;1.75;1.20;;;19.10;68.10;;;;;;4997441;28;20066;-71
2021/08/24 06:02:07;;;;;;;2.03;1.30;;;19.20;68.50;;;;;;4997509;28;20076;-70
2021/08/24 06:04:34;;;;;;;2.53;1.30;;;;;;;;;;4997332;28;20038;-72
2021/08/24 06:07:00;;;;;;;3.50;1.50;;;19.30;65.70;;;;;;4997521;28;20045;-70
2021/08/24 06:09:25;;;;;;;2.58;1.20;;;19.30;66.40;;;;;;4997234;28;20051;-69
2021/08/24 06:11:52;;;;;;;1.95;1.00;;;19.40;66.80;;;;;;4997093;28;20490;-71
2021/08/24 06:14:20;;;;;;;4.88;1.50;;;19.40;66.60;;;;;;4997429;28;20386;-71
2021/08/24 06:16:47;;;;;;;2.45;1.30;;;19.50;65.30;;;;;;4997333;28;20038;-67
2021/08/24 06:19:13;;;;;;;11.00;1.58;;;19.60;65.60;;;;;;4997214;28;20030;-71
2021/08/24 06:21:39;;;;;;;2.30;1.23;;;19.60;65.50;;;;;;4997111;28;20089;-71
2021/08/24 06:24:06;;;;;;;2.53;1.48;;;19.70;65.10;;;;;;4996982;28;20050;-69
2021/08/24 06:26:32;;;;;;;1.85;1.30;;;19.80;65.00;;;;;;4996953;28;20027;-72
2021/08/24 06:28:58;;;;;;;2.83;1.45;;;19.80;64.40;;;;;;4995646;28;20116;-70
2021/08/24 06:31:26;;;;;;;2.85;1.30;;;19.90;64.40;;;;;;4996677;28;20093;-69
2021/08/24 06:33:53;;;;;;;2.22;1.10;;;20.00;64.00;;;;;;4996957;28;20044;-70
2021/08/24 06:36:20;;;;;;;2.15;1.20;;;20.00;64.00;;;;;;4996735;28;20029;-69
2021/08/24 06:38:46;;;;;;;4.57;1.30;;;20.10;63.30;;;;;;4996583;28;20108;-69
2021/08/24 06:41:12;;;;;;;5.40;1.00;;;20.10;63.00;;;;;;4996608;28;20034;-71
2021/08/24 06:43:38;;;;;;;1.60;1.20;;;20.20;62.90;;;;;;4997321;28;20399;-67
2021/08/24 06:46:05;;;;;;;4.88;1.25;;;20.20;63.00;;;;;;4996565;28;20117;-70
2021/08/24 06:48:31;;;;;;;4.72;1.30;;;20.30;62.60;;;;;;4996615;28;20030;-68
2021/08/24 06:50:56;;;;;;;1.83;1.20;;;20.40;62.50;;;;;;4996471;28;20077;-68
2021/08/24 06:53:23;;;;;;;1.85;1.20;;;20.40;62.30;;;;;;4996506;28;20051;-67
2021/08/24 06:55:49;;;;;;;1.17;0.95;;;20.50;62.20;;;;;;4996373;28;20038;-70
2021/08/24 06:58:16;;;;;;;3.08;1.27;;;20.60;61.90;;;;;;4996282;28;20092;-70
2021/08/24 07:00:45;;;;;;;3.30;1.15;;;20.70;61.40;;;;;;4996297;28;20034;-71
2021/08/24 07:03:12;;;;;;;2.72;1.10;;;20.70;60.20;;;;;;4995209;28;20042;-71
2021/08/24 07:05:42;;;;;;;2.38;1.20;;;20.80;59.90;;;;;;4996159;28;20030;-70
2021/08/24 07:08:08;;;;;;;5.40;1.23;;;20.80;60.50;;;;;;4995963;28;20043;-67
2021/08/24 07:10:33;;;;;;;2.33;1.10;;;20.90;59.90;;;;;;4995978;28;20046;-66
2021/08/24 07:12:59;;;;;;;2.90;1.20;;;21.00;59.80;;;;;;4996150;28;20054;-66
2021/08/24 07:15:25;;;;;;;3.28;1.13;;;21.00;59.40;;;;;;4996304;28;20066;-67
2021/08/24 07:17:55;;;;;;;1.80;1.00;;;21.10;58.80;;;;;;4995923;28;20034;-70
2021/08/24 07:20:22;;;;;;;2.65;1.00;;;21.20;57.30;;;;;;4996095;28;20099;-71
2021/08/24 07:22:49;;;;;;;1.63;1.00;;;21.30;58.20;;;;;;4995717;28;20042;-71
2021/08/24 07:25:18;;;;;;;1.63;0.90;;;21.30;58.20;;;;;;4996125;28;20034;-71
2021/08/24 07:27:44;;;;;;;2.88;0.88;;;21.40;57.90;;;;;;4996131;28;20066;-70
2021/08/24 07:30:10;;;;;;;1.40;0.88;;;21.40;57.80;;;;;;4995845;28;20450;-70
2021/08/24 07:32:36;;;;;;;2.33;1.23;;;21.50;58.00;;;;;;4995729;28;20035;-70
2021/08/24 07:35:03;;;;;;;2.13;1.00;;;21.60;57.90;;;;;;4995760;28;20446;-70
2021/08/24 07:37:29;;;;;;;4.75;0.95;;;21.70;57.70;;;;;;4995581;28;20422;-70
2021/08/24 07:39:55;;;;;;;3.30;1.10;;;;;;;;;;4995754;28;20038;-70
2021/08/24 07:42:21;;;;;;;1.30;1.00;;;21.90;56.80;;;;;;4995347;28;20030;-70
2021/08/24 07:44:47;;;;;;;3.88;1.27;;;21.90;56.60;;;;;;4995770;28;20046;-70
2021/08/24 07:47:13;;;;;;;1.73;1.10;;;22.00;56.60;;;;;;4995531;28;20034;-71
2021/08/24 07:49:39;;;;;;;2.80;1.25;;;22.10;57.60;;;;;;4995595;28;20041;-70
2021/08/24 07:52:07;;;;;;;2.78;1.10;;;22.10;56.60;;;;;;4995494;28;20066;-71
2021/08/24 07:54:34;;;;;;;1.70;1.10;;;22.20;56.30;;;;;;4995638;28;20121;-71
2021/08/24 07:56:59;;;;;;;1.60;1.10;;;22.30;56.10;;;;;;4995447;28;20041;-69
2021/08/24 07:59:25;;;;;;;6.82;1.20;;;22.40;56.10;;;;;;4995152;28;20034;-71
2021/08/24 08:01:54;;;;;;;1.85;1.05;;;22.50;55.70;;;;;;4995158;28;20058;-71
2021/08/24 08:04:24;;;;;;;2.58;1.20;;;22.60;55.70;;;;;;4994952;28;20118;-70
2021/08/24 08:06:50;;;;;;;2.03;1.17;;;22.70;55.80;;;;;;4995268;28;20043;-70
2021/08/24 08:09:16;;;;;;;2.17;1.15;;;22.70;55.20;;;;;;4995000;28;20101;-67
2021/08/24 08:11:42;;;;;;;1.63;1.30;;;22.80;55.10;;;;;;4994967;28;20434;-70
2021/08/24 08:14:09;;;;;;;1.90;1.15;;;22.90;54.90;;;;;;4995047;28;20490;-69
2021/08/24 08:16:38;;;;;;;1.90;1.00;;;;;;;;;;4995033;28;20093;-70
2021/08/24 08:19:04;;;;;;;3.45;1.10;;;23.10;54.00;;;;;;4994789;28;20061;-70
2021/08/24 08:21:33;;;;;;;1.42;0.98;;;23.20;54.60;;;;;;4994704;28;20054;-69
2021/08/24 08:24:00;;;;;;;4.72;1.40;;;23.30;53.80;;;;;;4994705;28;20050;-67
2021/08/24 08:26:27;;;;;;;2.20;1.10;;;23.40;53.20;;;;;;4994800;28;20085;-67
2021/08/24 08:28:55;;;;;;;1.25;1.10;;;23.50;52.20;;;;;;4995028;28;20066;-67
2021/08/24 08:31:22;;;;;;;1.25;1.10;;;23.50;52.30;;;;;;4994467;28;20118;-67
2021/08/24 08:33:48;;;;;;;2.63;1.67;;;23.60;51.10;;;;;;4994399;28;20437;-68
2021/08/24 08:36:14;;;;;;;1.75;1.20;;;23.70;51.30;;;;;;4994571;28;20038;-65
2021/08/24 08:38:39;;;;;;;2.58;1.30;;;23.70;51.10;;;;;;4994637;28;20066;-65
2021/08/24 08:41:30;;;;;;;3.97;1.15;;;23.80;51.00;;;;;;4994626;28;20056;-65
2021/08/24 08:44:00;;;;;;;2.67;1.27;;;23.90;50.60;;;;;;4994096;28;20045;-68
2021/08/24 08:46:57;;;;;;;1.65;1.00;;;23.90;49.80;;;;;;4994667;28;20034;-65
2021/08/24 08:49:29;;;;;;;1.70;1.13;;;24.00;50.30;;;;;;4994429;28;20035;-65
2021/08/24 08:52:28;;;;;;;1.08;0.93;;;24.10;49.50;;;;;;4994173;28;20066;-65
2021/08/24 08:55:06;;;;;;;2.55;1.08;;;24.20;50.20;;;;;;4994338;28;20034;-65
2021/08/24 08:57:40;;;;;;;1.50;1.15;;;24.30;48.50;;;;;;4994092;28;20034;-65
2021/08/24 09:00:06;;;;;;;2.35;1.05;;;24.30;49.30;;;;;;4994136;28;20034;-65
2021/08/24 09:02:48;;;;;;;1.63;1.00;;;24.40;49.00;;;;;;4994188;28;20061;-65
2021/08/24 09:05:19;;;;;;;3.47;0.90;;;24.50;49.40;;;;;;4994082;28;20046;-66
2021/08/24 09:07:47;;;;;;;1.50;1.00;;;24.60;49.50;;;;;;4994111;28;20427;-65
2021/08/24 09:10:37;;;;;;;2.58;1.10;;;24.60;48.10;;;;;;4993895;28;20060;-65
2021/08/24 09:13:13;;;;;;;0.95;0.82;;;24.70;48.40;;;;;;4993967;28;20041;-65
2021/08/24 09:15:56;;;;;;;4.00;1.08;;;24.80;47.30;;;;;;4993828;28;20121;-65
2021/08/24 09:18:42;;;;;;;1.60;1.27;;;24.80;46.90;;;;;;4994039;28;20086;-65
2021/08/24 09:21:10;;;;;;;1.73;1.00;;;24.90;47.00;;;;;;4993944;28;20034;-65
2021/08/24 09:23:36;;;;;;;0.95;0.75;;;24.90;48.30;;;;;;4993737;28;20126;-66
2021/08/24 09:26:17;;;;;;;1.27;1.10;;;25.00;47.40;;;;;;4993383;28;20117;-65
2021/08/24 09:28:45;;;;;;;3.33;0.93;;;25.10;46.40;;;;;;4994194;28;20109;-65
2021/08/24 09:31:19;;;;;;;1.85;1.10;;;25.20;47.70;;;;;;4993750;28;20570;-65
2021/08/24 09:33:45;;;;;;;2.42;1.00;;;25.30;48.30;;;;;;4993898;28;20081;-66
2021/08/24 09:36:11;;;;;;;1.35;1.00;;;25.40;47.30;;;;;;4993620;28;20034;-65
2021/08/24 09:39:06;;;;;;;1.20;0.90;;;25.50;47.10;;;;;;4993968;28;20064;-65
2021/08/24 09:41:34;;;;;;;2.72;0.82;;;25.60;45.70;;;;;;4988613;28;20390;-65
2021/08/24 09:44:26;;;;;;;1.40;0.90;;;25.70;46.40;;;;;;4993838;28;20042;-65
2021/08/24 09:47:01;;;;;;;1.38;0.93;;;25.80;46.20;;;;;;4993881;28;20085;-66
2021/08/24 09:49:33;;;;;;;0.90;0.80;;;25.90;46.00;;;;;;4993945;28;20042;-65
2021/08/24 09:52:01;;;;;;;1.00;0.70;;;25.90;44.90;;;;;;4993720;28;20026;-66
2021/08/24 09:54:37;;;;;;;2.35;0.70;;;26.00;43.60;;;;;;4993590;28;20490;-66
2021/08/24 09:57:12;;;;;;;1.60;0.90;;;26.10;44.70;;;;;;4993313;28;20062;-65
2021/08/24 09:59:46;;;;;;;0.77;0.70;;;26.20;45.50;;;;;;4993822;28;20038;-65
2021/08/24 10:02:41;;;;;;;1.30;0.90;;;26.30;45.80;;;;;;4993885;28;20062;-65
2021/08/24 10:05:13;;;;;;;1.25;0.90;;;26.40;45.00;;;;;;4993779;28;20399;-65
2021/08/24 10:07:42;;;;;;;1.77;1.05;;;26.40;44.90;;;;;;4993470;28;20033;-65
2021/08/24 10:10:30;;;;;;;5.15;0.98;;;26.50;45.70;;;;;;4993362;28;20554;-66
2021/08/24 10:12:59;;;;;;;2.28;1.02;;;26.60;44.30;;;;;;4993616;28;20026;-66
2021/08/24 10:15:24;;;;;;;2.97;0.80;;;26.60;43.50;;;;;;4993453;28;20184;-65
2021/08/24 10:18:04;;;;;;;0.82;0.70;;;26.70;44.10;;;;;;4993307;28;20073;-65
2021/08/24 10:20:42;;;;;;;2.67;0.82;;;26.80;43.40;;;;;;4993738;28;20136;-65
2021/08/24 10:23:14;;;;;;;3.33;0.90;;;26.90;42.70;;;;;;4993402;28;20031;-65
2021/08/24 10:25:49;;;;;;;1.40;0.90;;;26.90;42.20;;;;;;4993466;28;20030;-65
2021/08/24 10:28:28;;;;;;;1.92;0.80;;;27.00;43.00;;;;;;4993314;28;20054;-66
2021/08/24 10:31:16;;;;;;;4.32;0.77;;;27.10;44.20;;;;;;4993342;28;20026;-66
2021/08/24 10:33:52;;;;;;;3.05;1.00;;;27.10;42.90;;;;;;4993508;28;20049;-65
2021/08/24 10:36:36;;;;;;;1.33;0.93;;;27.20;42.30;;;;;;4993098;28;20030;-66
2021/08/24 10:39:22;;;;;;;0.73;0.65;;;27.20;41.70;;;;;;4996446;28;20165;-66
2021/08/24 10:42:08;;;;;;;0.88;0.60;;;27.30;42.40;;;;;;4996777;28;20037;-66
2021/08/24 10:45:03;;;;;;;2.08;1.02;;;27.30;42.50;;;;;;4996553;28;20073;-66
2021/08/24 10:47:54;;;;;;;0.70;0.63;;;27.40;41.60;;;;;;4996662;28;20077;-65
2021/08/24 10:50:22;;;;;;;0.88;0.65;;;27.40;42.20;;;;;;4996835;28;20117;-66
2021/08/24 10:53:01;;;;;;;2.70;0.80;;;27.50;42.90;;;;;;4996521;28;20084;-65
2021/08/24 10:55:28;;;;;;;1.15;0.70;;;27.50;41.50;;;;;;4996385;28;20033;-65
2021/08/24 10:58:22;;;;;;;2.30;0.73;;;27.60;41.50;;;;;;4996514;28;20073;-65
2021/08/24 11:01:07;;;;;;;3.30;0.70;;;27.60;40.20;;;;;;4996420;28;20038;-65
2021/08/24 11:03:57;;;;;;;0.90;0.70;;;27.50;41.60;;;;;;4995940;28;20483;-66
2021/08/24 11:06:26;;;;;;;1.40;0.82;;;27.60;40.40;;;;;;4996355;28;20129;-66
2021/08/24 11:09:22;;;;;;;1.10;0.80;;;27.70;41.90;;;;;;4995999;28;20054;-66
2021/08/24 11:12:07;;;;;;;2.47;0.90;;;;;;;;;;4996102;28;20462;-66
2021/08/24 11:15:02;;;;;;;1.58;0.80;;;27.80;40.30;;;;;;4995997;28;20034;-65
2021/08/24 11:17:58;;;;;;;0.65;0.57;;;27.90;40.60;;;;;;4996085;28;20045;-65
2021/08/24 11:20:38;;;;;;;1.02;0.80;;;27.90;40.60;;;;;;4995995;28;20041;-65
2021/08/24 11:23:21;;;;;;;0.90;0.65;;;28.00;40.90;;;;;;4995767;28;20038;-66
2021/08/24 11:25:58;;;;;;;1.67;0.70;;;28.00;39.30;;;;;;4996047;28;20156;-65
2021/08/24 11:28:52;;;;;;;1.48;0.80;;;28.10;40.10;;;;;;4996126;28;20041;-65
2021/08/24 11:31:30;;;;;;;4.00;0.80;;;28.20;40.20;;;;;;4996005;28;20030;-65
2021/08/24 11:34:18;;;;;;;0.90;0.60;;;28.30;40.10;;;;;;4995826;28;20061;-65
2021/08/24 11:36:50;;;;;;;1.52;0.73;;;28.30;40.20;;;;;;4995596;28;20471;-65
2021/08/24 11:39:39;;;;;;;1.58;0.75;;;28.40;39.50;;;;;;4995898;28;20037;-65
2021/08/24 11:42:05;;;;;;;1.33;0.55;;;;;;;;;;4992332;28;20081;-65
2021/08/24 11:44:46;;;;;;;2.25;0.60;;;28.60;39.10;;;;;;4995452;28;20407;-66
2021/08/24 11:47:16;;;;;;;1.55;0.55;;;28.60;39.10;;;;;;4995399;28;20053;-65
2021/08/24 11:50:11;;;;;;;0.98;0.63;;;28.60;38.90;;;;;;4994997;28;20038;-65
2021/08/24 11:52:58;;;;;;;2.35;0.75;;;28.60;39.50;;;;;;4995495;28;20129;-66
2021/08/24 11:55:32;;;;;;;1.10;0.52;;;28.50;39.70;;;;;;4995472;28;20038;-65
2021/08/24 11:58:20;;;;;;;1.00;0.60;;;28.60;39.80;;;;;;4995023;28;20039;-65
2021/08/24 12:00:54;;;;;;;5.10;0.75;;;28.60;38.60;;;;;;4995216;28;20088;-65
2021/08/24 12:03:21;;;;;;;0.50;0.40;;;28.70;39.10;;;;;;4995141;28;20074;-66
2021/08/24 12:06:20;;;;;;;0.50;0.50;;;28.80;38.90;;;;;;4995208;28;20030;-65
2021/08/24 12:08:52;;;;;;;0.70;0.60;;;28.80;37.40;;;;;;4995341;28;20047;-66
2021/08/24 12:11:23;;;;;;;1.70;0.50;;;28.80;39.50;;;;;;4994726;28;20035;-65
2021/08/24 12:13:55;;;;;;;0.98;0.60;;;28.90;41.10;;;;;;4995163;28;20045;-65
2021/08/24 12:16:21;;;;;;;0.63;0.60;;;29.20;38.80;;;;;;4995088;28;20069;-66
2021/08/24 12:18:57;;;;;;;0.70;0.70;;;29.30;38.30;;;;;;4995034;28;20491;-66
2021/08/24 12:21:55;;;;;;;3.67;0.57;;;29.40;38.90;;;;;;4994995;28;20034;-66
2021/08/24 12:24:23;;;;;;;2.53;0.60;;;29.40;38.00;;;;;;4989965;28;20038;-65
2021/08/24 12:27:09;;;;;;;3.08;0.73;;;29.50;38.60;;;;;;4994658;28;20033;-66
2021/08/24 12:29:35;;;;;;;1.02;0.52;;;29.50;37.90;;;;;;4995051;28;20034;-66
2021/08/24 12:32:20;;;;;;;1.30;0.60;;;29.60;37.30;;;;;;4994722;28;20121;-66
2021/08/24 12:35:05;;;;;;;3.35;0.75;;;29.60;38.10;;;;;;4994705;28;20126;-65
2021/08/24 12:37:31;;;;;;;2.60;0.50;;;29.70;36.90;;;;;;4994689;28;20069;-65
2021/08/24 12:40:21;;;;;;;0.60;0.60;;;29.70;36.90;;;;;;4994658;28;20089;-65
2021/08/24 12:43:02;;;;;;;1.27;0.70;;;29.70;37.40;;;;;;4994072;28;20041;-65
2021/08/24 12:45:31;;;;;;;2.22;0.65;;;29.80;38.30;;;;;;4994390;28;20034;-65
2021/08/24 12:48:16;;;;;;;1.10;0.60;;;29.80;37.30;;;;;;4994242;28;20043;-66
2021/08/24 12:50:44;;;;;;;0.70;0.60;;;29.90;37.70;;;;;;4994334;28;20049;-65
2021/08/24 12:53:28;;;;;;;1.73;0.60;;;29.90;36.50;;;;;;4994311;28;20034;-66
2021/08/24 12:55:58;;;;;;;2.90;0.70;;;29.90;37.50;;;;;;4994298;28;20478;-67
2021/08/24 12:58:27;;;;;;;1.13;0.60;;;29.90;36.40;;;;;;4994367;28;20041;-66
2021/08/24 13:01:18;;;;;;;0.90;0.70;;;29.90;37.40;;;;;;4992279;28;20035;-65
2021/08/24 13:04:02;;;;;;;2.25;0.60;;;29.70;35.80;;;;;;4991055;28;20060;-66
2021/08/24 13:06:31;;;;;;;0.95;0.60;;;29.70;37.40;;;;;;4991956;28;20040;-65
2021/08/24 13:09:18;;;;;;;0.52;0.50;;;29.60;36.40;;;;;;4994134;28;20061;-65
2021/08/24 13:12:16;;;;;;;1.35;0.70;;;29.60;37.00;;;;;;4993970;28;20088;-66
2021/08/24 13:14:49;;;;;;;0.60;0.60;;;29.70;36.80;;;;;;4994211;28;20066;-66
2021/08/24 13:17:30;;;;;;;0.85;0.60;;;29.70;37.30;;;;;;4993779;28;20037;-65
2021/08/24 13:20:00;;;;;;;2.40;0.60;;;29.70;37.70;;;;;;4994119;28;20117;-66
2021/08/24 13:22:34;;;;;;;0.95;0.55;;;29.80;37.70;;;;;;4993946;28;20034;-66
2021/08/24 13:25:03;;;;;;;0.75;0.60;;;29.90;37.30;;;;;;4993896;28;20046;-66
2021/08/24 13:27:35;;;;;;;0.80;0.60;;;30.00;37.30;;;;;;4993927;28;20045;-65
2021/08/24 13:30:06;;;;;;;0.65;0.60;;;30.10;46.70;;;;;;4993692;28;20069;-66
2021/08/24 13:32:48;;;;;;;0.77;0.60;;;30.20;49.70;;;;;;4994022;28;20364;-66
2021/08/24 13:35:22;;;;;;;1.98;0.70;;;30.10;41.90;;;;;;4994000;28;20062;-65
2021/08/24 13:37:49;;;;;;;1.55;0.55;;;30.20;39.80;;;;;;4993687;28;20042;-65
2021/08/24 13:40:36;;;;;;;2.65;0.65;;;30.10;40.10;;;;;;4993840;28;20452;-66
2021/08/24 13:43:01;;;;;;;1.85;0.88;;;30.10;40.70;;;;;;4993530;28;20031;-66
2021/08/24 13:45:34;;;;;;;1.83;0.77;;;30.10;41.50;;;;;;4993715;28;20038;-66
2021/08/24 13:48:01;;;;;;;3.85;0.77;;;30.10;37.80;;;;;;4993714;28;20069;-66
2021/08/24 13:50:33;;;;;;;1.52;0.73;;;30.10;37.30;;;;;;4993971;28;21106;-65
2021/08/24 13:53:04;;;;;;;2.90;0.70;;;30.10;37.50;;;;;;4993658;28;20117;-66
2021/08/24 13:55:34;;;;;;;2.75;0.60;;;30.10;37.70;;;;;;4993944;28;20034;-65
2021/08/24 13:58:36;;;;;;;1.80;0.60;;;30.20;37.70;;;;;;4993714;28;20062;-65
2021/08/24 14:01:10;;;;;;;0.70;0.55;;;30.30;36.40;;;;;;4993435;28;20490;-66
2021/08/24 14:03:46;;;;;;;1.45;0.70;;;30.30;36.80;;;;;;4993490;28;20043;-65
2021/08/24 14:06:24;;;;;;;1.38;0.65;;;30.30;37.30;;;;;;4993652;28;20097;-65
2021/08/24 14:08:50;;;;;;;0.60;0.43;;;30.40;36.90;;;;;;4993369;28;20089;-66
2021/08/24 14:11:21;;;;;;;1.02;0.60;;;30.40;36.70;;;;;;4993915;28;20419;-65
2021/08/24 14:13:48;;;;;;;1.00;0.68;;;30.40;36.60;;;;;;4997456;28;20038;-66
2021/08/24 14:16:24;;;;;;;1.77;0.63;;;30.30;36.80;;;;;;4997259;28;20483;-66
2021/08/24 14:18:53;;;;;;;2.13;0.73;;;30.40;36.60;;;;;;4997037;28;20113;-65
2021/08/24 14:21:20;;;;;;;1.58;0.68;;;30.30;37.00;;;;;;4997424;28;20382;-65
2021/08/24 14:23:51;;;;;;;1.02;0.70;;;30.30;37.20;;;;;;4996927;28;20046;-66
2021/08/24 14:26:27;;;;;;;0.77;0.60;;;30.40;37.50;;;;;;4997350;28;20394;-66
2021/08/24 14:28:55;;;;;;;2.65;0.70;;;30.50;37.40;;;;;;4996954;28;20108;-65
2021/08/24 14:31:25;;;;;;;1.85;0.70;;;30.50;37.20;;;;;;4996982;28;20436;-65
2021/08/24 14:33:52;;;;;;;1.45;0.60;;;30.50;37.30;;;;;;4996852;28;20046;-65
2021/08/24 14:36:23;;;;;;;1.45;0.63;;;30.40;37.20;;;;;;4996747;28;20026;-66
2021/08/24 14:39:06;;;;;;;1.08;0.70;;;30.40;37.50;;;;;;4996669;28;20383;-65
2021/08/24 14:41:34;;;;;;;0.60;0.60;;;30.30;37.00;;;;;;4996904;28;20049;-65
2021/08/24 14:44:14;;;;;;;0.68;0.68;;;30.30;37.10;;;;;;4996391;28;20073;-65
2021/08/24 14:46:59;;;;;;;1.70;0.73;;;30.20;37.40;;;;;;4996429;28;20022;-66
2021/08/24 14:49:39;;;;;;;1.05;0.70;;;30.30;38.30;;;;;;4996785;28;20057;-66
2021/08/24 14:52:20;;;;;;;1.40;0.75;;;30.20;38.50;;;;;;4996510;28;20069;-66
2021/08/24 14:55:10;;;;;;;1.10;0.80;;;30.20;37.80;;;;;;4996530;28;20582;-66
2021/08/24 14:57:57;;;;;;;0.85;0.70;;;30.20;38.70;;;;;;4996535;28;20046;-65
2021/08/24 15:00:35;;;;;;;0.95;0.60;;;30.00;38.20;;;;;;4996272;28;20498;-66
2021/08/24 15:03:19;;;;;;;1.92;0.80;;;29.90;37.40;;;;;;4996343;28;20495;-67
2021/08/24 15:05:50;;;;;;;1.13;0.80;;;29.90;38.00;;;;;;4996588;28;20042;-66
2021/08/24 15:08:30;;;;;;;0.70;0.70;;;29.80;38.60;;;;;;4995974;28;20031;-65
2021/08/24 15:11:15;;;;;;;0.65;0.63;;;29.70;38.50;;;;;;4996052;28;20096;-65
2021/08/24 15:14:19;;;;;;;3.00;0.80;;;29.60;38.40;;;;;;4996191;28;20023;-66
2021/08/24 15:16:45;;;;;;;6.25;1.70;;;29.50;38.50;;;;;;4982863;28;20612;-65
2021/08/24 15:19:34;;;;;;;3.33;1.10;;;29.50;39.10;;;;;;4993155;28;20460;-66
2021/08/24 15:22:00;;;;;;;2.35;0.90;;;29.40;39.00;;;;;;4994426;28;20030;-66
2021/08/24 15:24:29;;;;;;;2.80;0.88;;;29.30;39.20;;;;;;4995288;28;20070;-65